createdAt,value
2022-12-07T00:02:24.261Z,52.39
2022-12-07T00:09:13.757Z,52.40
2022-12-07T00:16:05.800Z,52.56
2022-12-07T00:22:51.264Z,52.44
2022-12-07T00:29:37.957Z,52.61
2022-12-07T00:36:28.047Z,52.64
2022-12-07T00:43:13.469Z,52.79
2022-12-07T00:49:59.173Z,52.69
2022-12-07T00:56:47.586Z,52.80
2022-12-07T01:03:33.828Z,52.70
2022-12-07T01:10:19.703Z,52.61
2022-12-07T01:17:07.766Z,52.84
2022-12-07T01:23:53.735Z,52.74
2022-12-07T01:30:39.320Z,52.91
2022-12-07T01:37:27.699Z,53.14
2022-12-07T01:44:24.238Z,53.57
2022-12-07T01:51:14.219Z,53.14
2022-12-07T01:58:02.836Z,53.22
2022-12-07T02:04:48.600Z,53.13
2022-12-07T02:11:33.979Z,53.01
2022-12-07T02:18:36.505Z,53.17
2022-12-07T02:25:34.023Z,53.42
2022-12-07T02:32:28.863Z,53.47
2022-12-07T02:39:22.934Z,53.69
2022-12-07T02:46:12.387Z,54.01
2022-12-07T02:53:00.571Z,53.96
2022-12-07T03:00:04.936Z,54.05
2022-12-07T03:06:57.630Z,54.11
2022-12-07T03:13:52.127Z,54.14
2022-12-07T03:20:41.218Z,54.10
2022-12-07T03:27:30.820Z,54.26
2022-12-07T03:34:25.872Z,54.53
2022-12-07T03:41:18.783Z,54.60
2022-12-07T04:02:02.857Z,55.03
2022-12-07T04:08:48.440Z,54.81
2022-12-07T04:15:34.238Z,55.02
2022-12-07T04:22:22.260Z,55.14
2022-12-07T04:29:08.109Z,55.30
2022-12-07T04:35:53.566Z,55.45
2022-12-07T04:42:41.787Z,55.53
2022-12-07T04:49:28.503Z,55.61
2022-12-07T04:56:13.888Z,55.64
2022-12-07T05:03:02.366Z,55.89
2022-12-07T05:09:48.029Z,55.71
2022-12-07T05:16:34.085Z,55.79
2022-12-07T05:23:22.689Z,55.87
2022-12-07T05:30:10.773Z,55.88
2022-12-07T05:36:56.160Z,56.05
2022-12-07T05:43:44.167Z,56.07
2022-12-07T05:50:29.689Z,56.06
2022-12-07T05:57:20.903Z,55.96
2022-12-07T06:04:09.134Z,55.89
2022-12-07T06:11:14.803Z,55.91
2022-12-07T06:18:00.306Z,55.84
2022-12-07T06:24:49.306Z,56.02
2022-12-07T06:31:34.934Z,55.87
2022-12-07T06:38:20.412Z,56.02
2022-12-07T06:45:09.760Z,56.12
2022-12-07T06:51:55.167Z,55.93
2022-12-07T06:58:40.637Z,55.61
2022-12-07T07:05:28.615Z,55.88
2022-12-07T07:12:14.299Z,55.78
2022-12-07T07:18:59.816Z,56.06
2022-12-07T07:25:48.531Z,56.18
2022-12-07T07:32:33.958Z,56.18
2022-12-07T07:39:19.403Z,56.45
2022-12-07T07:46:07.693Z,56.67
2022-12-07T07:52:53.764Z,56.43
2022-12-07T07:59:39.276Z,56.40
2022-12-07T08:06:31.960Z,56.56
2022-12-07T08:13:20.253Z,56.77
2022-12-07T08:20:06.019Z,56.71
2022-12-07T08:26:54.164Z,56.94
2022-12-07T08:33:39.908Z,56.83
2022-12-07T08:40:25.357Z,56.81
2022-12-07T08:47:15.044Z,56.86
2022-12-07T08:54:03.017Z,56.77
2022-12-07T09:00:48.494Z,56.90
2022-12-07T09:07:38.388Z,56.88
2022-12-07T09:14:23.947Z,56.88
2022-12-07T09:21:09.785Z,56.75
2022-12-07T09:28:02.829Z,56.95
2022-12-07T09:34:48.347Z,56.76
2022-12-07T09:41:35.523Z,56.99
2022-12-07T09:48:27.788Z,57.15
2022-12-07T09:55:17.205Z,57.04
2022-12-07T10:02:28.924Z,57.07
2022-12-07T10:09:20.373Z,57.28
2022-12-07T10:16:07.430Z,57.15
2022-12-07T10:23:06.372Z,57.28
2022-12-07T10:29:58.739Z,57.23
2022-12-07T10:36:44.235Z,57.17
2022-12-07T10:43:29.632Z,57.07
2022-12-07T10:50:56.448Z,57.27
2022-12-07T10:58:02.919Z,57.08
2022-12-07T11:05:04.520Z,57.00
2022-12-07T11:12:03.348Z,56.93
2022-12-07T11:19:06.943Z,56.81
2022-12-07T11:26:02.792Z,56.42
2022-12-07T11:33:15.929Z,56.28
2022-12-07T11:40:06.266Z,56.12
2022-12-07T11:46:57.903Z,56.07
2022-12-07T11:53:53.573Z,56.02
2022-12-07T12:00:39.939Z,55.86
2022-12-07T12:14:58.780Z,56.30
2022-12-07T12:21:45.885Z,56.18
2022-12-07T12:28:36.769Z,56.23
2022-12-07T12:35:35.570Z,56.29
2022-12-07T12:42:23.659Z,55.98
2022-12-07T12:50:02.799Z,55.73
2022-12-07T12:56:56.813Z,55.46
2022-12-07T13:03:42.227Z,55.23
2022-12-07T13:10:47.463Z,55.40
2022-12-07T13:18:07.743Z,55.18
2022-12-07T13:24:53.229Z,54.74
2022-12-07T13:31:40.533Z,54.58
2022-12-07T13:38:36.041Z,54.62
2022-12-07T13:45:49.237Z,54.45
2022-12-07T13:52:36.027Z,54.10
2022-12-07T13:59:27.923Z,53.92
2022-12-07T14:06:30.381Z,53.97
2022-12-07T14:13:35.102Z,53.95
2022-12-07T14:20:40.717Z,53.53
2022-12-07T14:27:31.713Z,53.28
2022-12-07T14:34:18.081Z,52.90
2022-12-07T14:41:18.948Z,52.93
2022-12-07T14:55:20.291Z,52.97
2022-12-07T15:02:08.866Z,52.81
2022-12-07T15:08:54.307Z,52.81
2022-12-07T15:15:39.715Z,52.75
2022-12-07T15:22:27.805Z,52.68
2022-12-07T15:29:21.012Z,52.58
2022-12-07T15:36:08.924Z,52.60
2022-12-07T15:42:56.973Z,52.66
2022-12-07T15:49:42.685Z,52.57
2022-12-07T15:56:28.239Z,52.55
2022-12-07T16:03:16.418Z,52.49
2022-12-07T16:10:01.849Z,52.25
2022-12-07T16:16:47.274Z,52.17
2022-12-07T16:23:35.787Z,52.24
2022-12-07T16:30:21.399Z,52.29
2022-12-07T16:37:06.814Z,52.24
2022-12-07T16:43:54.939Z,52.06
2022-12-07T16:50:49.546Z,51.73
2022-12-07T16:57:36.629Z,51.81
2022-12-07T17:04:24.805Z,51.89
2022-12-07T17:11:15.581Z,51.94
2022-12-07T17:18:02.672Z,51.70
2022-12-07T17:24:50.748Z,51.79
2022-12-07T17:31:36.767Z,51.76
2022-12-07T17:38:22.252Z,51.60
2022-12-07T17:45:13.432Z,51.09
2022-12-07T17:52:12.250Z,51.05
2022-12-07T17:58:57.667Z,51.14
2022-12-07T18:05:49.246Z,50.99
2022-12-07T18:12:34.908Z,51.42
2022-12-07T18:19:20.816Z,51.61
2022-12-07T18:26:09.762Z,51.80
2022-12-07T18:32:55.227Z,52.02
2022-12-07T18:39:40.983Z,51.95
2022-12-07T18:46:29.110Z,52.23
2022-12-07T18:53:14.562Z,52.27
2022-12-07T19:00:00.153Z,52.44
2022-12-07T19:06:52.928Z,52.70
2022-12-07T19:13:38.360Z,52.44
2022-12-07T19:20:24.116Z,52.58
2022-12-07T19:27:12.494Z,52.76
2022-12-07T19:33:57.985Z,52.81
2022-12-07T19:40:43.388Z,52.90
2022-12-07T19:47:31.371Z,53.04
2022-12-07T19:54:20.252Z,53.19
2022-12-07T20:01:06.870Z,53.31
2022-12-07T20:07:54.988Z,53.41
2022-12-07T20:14:41.391Z,53.48
2022-12-07T20:21:28.180Z,53.54
2022-12-07T20:28:16.144Z,53.63
2022-12-07T20:35:03.040Z,53.60
2022-12-07T20:42:02.835Z,53.77
2022-12-07T20:48:51.078Z,53.82
2022-12-07T20:55:36.770Z,53.94
2022-12-07T21:02:22.324Z,54.16
2022-12-07T21:09:12.150Z,54.43
2022-12-07T21:15:59.615Z,54.64
2022-12-07T21:22:45.129Z,54.69
2022-12-07T21:29:43.214Z,54.69
2022-12-07T21:36:30.072Z,54.71
2022-12-07T21:43:15.752Z,54.76
2022-12-07T21:50:03.863Z,54.93
2022-12-07T21:56:49.276Z,55.06
2022-12-07T22:03:34.768Z,55.02
2022-12-07T22:10:30.672Z,55.26
2022-12-07T22:17:16.091Z,55.18
2022-12-07T22:24:02.633Z,55.16
2022-12-07T22:30:50.656Z,55.36
2022-12-07T22:37:36.580Z,55.27
2022-12-07T22:44:22.129Z,55.22
2022-12-07T22:51:11.610Z,55.47
2022-12-07T22:57:57.206Z,55.41
2022-12-07T23:04:42.753Z,55.45
2022-12-07T23:11:47.342Z,55.46
2022-12-07T23:18:32.723Z,55.44
2022-12-07T23:25:18.210Z,55.72
2022-12-07T23:32:06.358Z,55.71
2022-12-07T23:38:54.154Z,55.84
2022-12-07T23:45:39.556Z,55.72
2022-12-07T23:52:27.534Z,55.85
2022-12-07T23:59:15.242Z,55.87
